createdAt,value
2018-12-10T00:01:46.900Z,64.52
2018-12-10T00:04:23.384Z,64.90
2018-12-10T00:06:55.455Z,65.46
2018-12-10T00:09:28.337Z,65.73
2018-12-10T00:12:03.235Z,65.88
2018-12-10T00:14:36.801Z,65.78
2018-12-10T00:17:09.427Z,65.57
2018-12-10T00:19:45.514Z,65.52
2018-12-10T00:22:19.233Z,65.59
2018-12-10T00:24:48.770Z,64.65
2018-12-10T00:27:18.936Z,65.46
2018-12-10T00:29:50.379Z,63.76
2018-12-10T00:32:21.015Z,63.12
2018-12-10T00:34:50.226Z,63.40
2018-12-10T00:37:23.563Z,61.68
2018-12-10T00:39:53.539Z,62.61
2018-12-10T00:42:23.098Z,61.84
2018-12-10T00:45:00.413Z,62.34
2018-12-10T00:47:32.801Z,62.41
2018-12-10T00:50:02.634Z,62.94
2018-12-10T00:52:32.855Z,63.52
2018-12-10T00:55:07.417Z,63.92
2018-12-10T00:57:47.237Z,64.30
2018-12-10T01:00:20.142Z,65.00
2018-12-10T01:02:49.091Z,65.11
2018-12-10T01:05:17.342Z,65.46
2018-12-10T01:07:46.207Z,65.43
2018-12-10T01:10:16.520Z,65.81
2018-12-10T01:12:45.246Z,65.83
2018-12-10T01:15:18.160Z,65.57
2018-12-10T01:17:47.234Z,65.43
2018-12-10T01:20:16.154Z,65.39
2018-12-10T01:22:44.971Z,65.01
2018-12-10T01:25:13.539Z,65.77
2018-12-10T01:27:42.001Z,65.41
2018-12-10T01:30:13.580Z,65.73
2018-12-10T01:32:42.035Z,65.42
2018-12-10T01:35:11.138Z,65.69
2018-12-10T01:37:40.157Z,65.96
2018-12-10T01:40:08.684Z,65.25
2018-12-10T01:42:40.920Z,65.18
2018-12-10T01:45:09.636Z,64.69
2018-12-10T01:47:44.361Z,64.55
2018-12-10T01:50:14.496Z,64.76
2018-12-10T01:52:44.799Z,64.64
2018-12-10T01:55:21.940Z,64.53
2018-12-10T01:58:27.743Z,64.18
2018-12-10T02:00:59.531Z,64.02
2018-12-10T02:03:29.332Z,64.83
2018-12-10T02:06:04.389Z,64.50
2018-12-10T02:08:33.172Z,64.49
2018-12-10T02:11:18.882Z,63.93
2018-12-10T02:13:52.899Z,64.11
2018-12-10T02:16:35.719Z,64.78
2018-12-10T02:19:11.142Z,64.58
2018-12-10T02:21:47.034Z,65.12
2018-12-10T02:24:30.844Z,64.93
2018-12-10T02:27:20.136Z,64.92
2018-12-10T02:29:50.827Z,64.32
2018-12-10T02:32:27.772Z,64.22
2018-12-10T02:34:56.979Z,63.97
2018-12-10T02:37:26.730Z,63.98
2018-12-10T02:39:55.461Z,63.76
2018-12-10T02:42:23.901Z,63.99
2018-12-10T02:44:52.730Z,64.45
2018-12-10T02:47:21.621Z,64.33
2018-12-10T02:49:50.540Z,64.24
2018-12-10T02:52:19.555Z,65.11
2018-12-10T02:54:48.795Z,65.11
2018-12-10T02:57:18.847Z,65.23
2018-12-10T02:59:48.960Z,66.33
2018-12-10T03:02:18.079Z,66.54
2018-12-10T03:04:47.029Z,66.88
2018-12-10T03:07:21.596Z,66.54
2018-12-10T03:09:54.024Z,66.37
2018-12-10T03:12:26.644Z,67.53
2018-12-10T03:15:14.967Z,67.36
2018-12-10T03:17:47.127Z,66.96
2018-12-10T03:20:16.585Z,67.11
2018-12-10T03:22:45.055Z,67.26
2018-12-10T03:25:15.181Z,66.66
2018-12-10T03:27:46.832Z,67.28
2018-12-10T03:30:18.648Z,66.78
2018-12-10T03:32:48.809Z,66.94
2018-12-10T03:35:17.410Z,67.17
2018-12-10T03:37:45.821Z,66.66
2018-12-10T03:40:18.119Z,66.32
2018-12-10T03:42:56.277Z,67.26
2018-12-10T03:45:32.093Z,67.48
2018-12-10T03:48:03.657Z,67.65
2018-12-10T03:50:37.284Z,67.35
2018-12-10T03:53:07.458Z,67.48
2018-12-10T03:55:40.217Z,67.34
2018-12-10T03:58:09.501Z,67.76
2018-12-10T04:00:38.071Z,67.82
2018-12-10T04:03:06.451Z,67.55
2018-12-10T04:05:35.505Z,67.05
2018-12-10T04:08:04.926Z,67.05
2018-12-10T04:10:34.457Z,67.40
2018-12-10T04:13:03.844Z,66.97
2018-12-10T04:15:34.059Z,66.73
2018-12-10T04:18:05.691Z,67.43
2018-12-10T04:20:37.795Z,66.73
2018-12-10T04:23:07.617Z,66.88
2018-12-10T04:25:38.500Z,66.88
2018-12-10T04:28:11.818Z,67.03
2018-12-10T04:30:41.565Z,66.69
2018-12-10T04:33:12.672Z,66.89
2018-12-10T04:35:42.677Z,67.73
2018-12-10T04:38:13.039Z,67.35
2018-12-10T04:40:49.141Z,67.22
2018-12-10T04:43:20.578Z,67.68
2018-12-10T04:45:51.297Z,66.66
2018-12-10T04:48:20.645Z,66.67
2018-12-10T04:50:52.164Z,66.51
2018-12-10T04:56:07.064Z,66.69
2018-12-10T04:58:38.266Z,66.91
2018-12-10T05:01:09.049Z,65.89
2018-12-10T05:03:41.369Z,66.03
2018-12-10T05:06:10.265Z,66.58
2018-12-10T05:08:40.358Z,66.27
2018-12-10T05:11:18.539Z,66.11
2018-12-10T05:13:52.993Z,66.19
2018-12-10T05:16:27.224Z,66.40
2018-12-10T05:18:59.273Z,65.82
2018-12-10T05:21:29.191Z,66.21
2018-12-10T05:23:59.297Z,66.52
2018-12-10T05:26:28.052Z,66.00
2018-12-10T05:28:56.452Z,66.64
2018-12-10T05:31:27.072Z,66.18
2018-12-10T05:33:55.961Z,66.55
2018-12-10T05:36:26.024Z,66.47
2018-12-10T05:38:56.555Z,66.78
2018-12-10T05:41:25.810Z,66.37
2018-12-10T05:43:54.624Z,66.65
2018-12-10T05:48:29.580Z,66.77
2018-12-10T05:50:57.907Z,66.54
2018-12-10T05:53:27.964Z,66.60
2018-12-10T05:55:56.349Z,67.15
2018-12-10T05:58:25.570Z,67.21
2018-12-10T06:01:52.882Z,67.44
2018-12-10T06:04:25.805Z,67.53
2018-12-10T06:06:55.006Z,67.83
2018-12-10T06:09:25.568Z,67.43
2018-12-10T06:11:54.899Z,67.40
2018-12-10T06:14:25.851Z,67.58
2018-12-10T06:16:55.348Z,66.87
2018-12-10T06:20:35.390Z,67.41
2018-12-10T06:23:05.878Z,67.38
2018-12-10T06:25:37.988Z,67.81
2018-12-10T06:28:09.657Z,67.55
2018-12-10T06:30:38.697Z,67.13
2018-12-10T06:33:07.615Z,67.20
2018-12-10T06:35:37.555Z,67.05
2018-12-10T06:38:08.600Z,67.02
2018-12-10T06:43:34.702Z,66.93
2018-12-10T06:46:14.869Z,67.84
2018-12-10T06:51:41.508Z,67.64
2018-12-10T06:59:31.570Z,66.89
2018-12-10T07:02:03.826Z,67.41
2018-12-10T07:04:51.624Z,67.29
2018-12-10T07:10:53.889Z,66.88
2018-12-10T07:13:23.456Z,66.53
2018-12-10T07:15:53.534Z,66.92
2018-12-10T07:18:38.192Z,66.42
2018-12-10T07:21:07.846Z,66.17
2018-12-10T07:23:38.789Z,66.38
2018-12-10T07:26:07.346Z,66.03
2018-12-10T07:28:38.210Z,66.75
2018-12-10T07:31:06.878Z,66.56
2018-12-10T07:33:36.975Z,66.79
2018-12-10T07:36:06.083Z,66.24
2018-12-10T07:38:47.605Z,66.33
2018-12-10T07:41:19.744Z,66.34
2018-12-10T07:43:49.447Z,67.17
2018-12-10T07:46:20.967Z,66.38
2018-12-10T07:48:50.868Z,66.13
2018-12-10T07:51:21.644Z,66.61
2018-12-10T07:53:50.819Z,66.36
2018-12-10T07:56:28.809Z,66.91
2018-12-10T07:58:53.109Z,67.79
2018-12-10T08:01:23.630Z,67.72
2018-12-10T08:03:51.854Z,67.43
2018-12-10T08:06:24.928Z,67.87
2018-12-10T08:08:57.118Z,67.69
2018-12-10T08:11:27.519Z,68.05
2018-12-10T08:16:48.952Z,67.53
2018-12-10T08:19:20.846Z,67.36
2018-12-10T08:21:52.160Z,67.08
2018-12-10T08:24:22.456Z,67.33
2018-12-10T08:26:56.543Z,67.55
2018-12-10T08:29:36.535Z,67.84
2018-12-10T08:32:21.553Z,67.78
2018-12-10T08:34:51.414Z,67.03
2018-12-10T08:37:21.446Z,67.17
2018-12-10T08:39:57.195Z,67.20
2018-12-10T08:42:35.084Z,67.06
2018-12-10T08:45:09.219Z,66.63
2018-12-10T08:47:42.495Z,66.52
2018-12-10T08:50:41.060Z,65.47
2018-12-10T08:53:15.720Z,66.07
2018-12-10T08:55:45.025Z,66.66
2018-12-10T08:58:14.224Z,66.40
2018-12-10T09:00:47.978Z,66.39
2018-12-10T09:03:24.273Z,66.63
2018-12-10T09:05:53.798Z,66.30
2018-12-10T09:08:25.497Z,65.84
2018-12-10T09:10:55.277Z,66.33
2018-12-10T09:13:24.073Z,66.96
2018-12-10T09:15:56.682Z,66.76
2018-12-10T09:18:26.424Z,66.33
2018-12-10T09:20:59.299Z,66.79
2018-12-10T09:23:30.080Z,66.63
2018-12-10T09:26:09.294Z,66.12
2018-12-10T09:28:39.617Z,65.50
2018-12-10T09:31:16.017Z,65.58
2018-12-10T09:33:45.204Z,66.09
2018-12-10T09:37:04.996Z,65.04
2018-12-10T09:39:35.020Z,65.31
2018-12-10T09:42:12.115Z,65.00
2018-12-10T09:44:43.029Z,65.32
2018-12-10T09:47:13.175Z,64.94
2018-12-10T09:52:27.289Z,66.01
2018-12-10T09:54:58.832Z,65.19
2018-12-10T09:57:32.613Z,64.78
2018-12-10T10:00:16.675Z,64.57
2018-12-10T10:03:00.168Z,63.71
2018-12-10T10:05:31.746Z,64.55
2018-12-10T10:08:04.895Z,64.28
2018-12-10T10:10:35.392Z,64.67
2018-12-10T10:13:04.046Z,64.13
2018-12-10T10:15:40.969Z,64.96
2018-12-10T10:18:09.272Z,65.45
2018-12-10T10:20:39.547Z,65.62
2018-12-10T10:23:08.845Z,65.71
2018-12-10T10:25:38.262Z,66.09
2018-12-10T10:28:10.638Z,66.41
2018-12-10T10:30:43.982Z,66.30
2018-12-10T10:33:14.677Z,64.98
2018-12-10T10:38:22.770Z,65.01
2018-12-10T10:40:57.472Z,65.37
2018-12-10T10:43:28.410Z,65.50
2018-12-10T10:45:57.118Z,65.43
2018-12-10T10:48:35.646Z,65.45
2018-12-10T10:51:08.836Z,65.37
2018-12-10T10:53:38.012Z,64.88
2018-12-10T10:56:10.972Z,64.88
2018-12-10T10:58:49.729Z,63.44
2018-12-10T11:01:23.688Z,64.00
2018-12-10T11:03:53.902Z,63.45
2018-12-10T11:06:24.171Z,62.49
2018-12-10T11:08:53.272Z,62.50
2018-12-10T11:11:22.317Z,63.90
2018-12-10T11:13:58.795Z,64.30
2018-12-10T11:16:31.907Z,64.40
2018-12-10T11:19:03.146Z,65.99
2018-12-10T11:21:35.778Z,65.07
2018-12-10T11:24:07.350Z,65.06
2018-12-10T11:26:43.545Z,65.19
2018-12-10T11:29:14.803Z,65.67
2018-12-10T11:31:48.899Z,66.41
2018-12-10T11:37:16.151Z,66.62
2018-12-10T11:41:41.175Z,67.75
2018-12-10T11:44:21.242Z,69.10
2018-12-10T11:46:53.187Z,69.15
2018-12-10T11:49:26.947Z,68.81
2018-12-10T11:51:58.959Z,69.55
2018-12-10T11:54:30.836Z,69.64
2018-12-10T11:57:05.980Z,69.04
2018-12-10T11:59:39.296Z,68.79
2018-12-10T12:02:13.266Z,68.31
2018-12-10T12:04:51.807Z,67.48
2018-12-10T12:10:55.196Z,68.09
2018-12-10T12:13:27.348Z,68.06
2018-12-10T12:16:04.670Z,67.96
2018-12-10T12:18:37.019Z,67.96
2018-12-10T12:21:07.996Z,67.83
2018-12-10T12:23:53.073Z,68.19
2018-12-10T12:26:24.986Z,68.55
2018-12-10T12:28:59.486Z,68.35
2018-12-10T12:31:31.869Z,68.58
2018-12-10T12:34:09.559Z,70.41
2018-12-10T12:36:49.785Z,70.00
2018-12-10T12:39:21.683Z,70.14
2018-12-10T12:41:55.528Z,68.89
2018-12-10T12:44:25.318Z,68.98
2018-12-10T12:46:57.288Z,68.93
2018-12-10T12:49:30.744Z,69.31
2018-12-10T12:52:02.009Z,68.40
2018-12-10T12:54:38.315Z,68.47
2018-12-10T12:57:14.680Z,68.78
2018-12-10T12:59:44.452Z,68.48
2018-12-10T13:02:16.391Z,68.12
2018-12-10T13:04:52.551Z,67.26
2018-12-10T13:07:22.844Z,66.74
2018-12-10T13:10:03.650Z,67.30
2018-12-10T13:15:26.661Z,66.75
2018-12-10T13:17:55.878Z,65.66
2018-12-10T13:20:31.819Z,66.32
2018-12-10T13:23:09.847Z,66.80
2018-12-10T13:25:42.306Z,65.60
2018-12-10T13:28:14.210Z,65.74
2018-12-10T13:30:43.719Z,65.16
2018-12-10T13:33:19.790Z,64.03
2018-12-10T13:35:56.317Z,63.46
2018-12-10T13:38:25.866Z,63.83
2018-12-10T13:40:56.297Z,63.26
2018-12-10T13:43:26.416Z,62.34
2018-12-10T13:46:15.478Z,63.24
2018-12-10T13:48:45.089Z,62.87
2018-12-10T13:51:16.341Z,62.66
2018-12-10T13:53:44.733Z,62.69
2018-12-10T13:56:13.745Z,63.06
2018-12-10T13:58:43.557Z,63.45
2018-12-10T14:01:16.428Z,64.12
2018-12-10T14:06:28.878Z,63.54
2018-12-10T14:09:07.938Z,63.46
2018-12-10T14:11:38.524Z,63.88
2018-12-10T14:14:12.075Z,63.32
2018-12-10T14:16:44.619Z,63.18
2018-12-10T14:19:13.991Z,62.97
2018-12-10T14:21:50.999Z,62.65
2018-12-10T14:24:21.189Z,63.42
2018-12-10T14:26:49.821Z,62.57
2018-12-10T14:29:19.815Z,63.33
2018-12-10T14:31:49.015Z,62.93
2018-12-10T14:34:23.405Z,62.68
2018-12-10T14:36:57.374Z,62.18
2018-12-10T14:39:34.062Z,61.85
2018-12-10T14:42:10.874Z,61.93
2018-12-10T14:44:42.742Z,62.04
2018-12-10T14:51:28.995Z,61.46
2018-12-10T14:54:00.064Z,61.29
2018-12-10T14:56:30.492Z,61.63
2018-12-10T14:59:00.632Z,61.46
2018-12-10T15:01:31.110Z,61.87
2018-12-10T15:04:03.431Z,61.55
2018-12-10T15:06:32.803Z,61.12
2018-12-10T15:09:01.358Z,61.58
2018-12-10T15:11:34.436Z,60.95
2018-12-10T15:14:08.789Z,61.67
2018-12-10T15:16:38.818Z,61.58
2018-12-10T15:19:09.073Z,61.71
2018-12-10T15:21:39.702Z,61.80
2018-12-10T15:24:09.571Z,61.69
2018-12-10T15:26:38.830Z,62.24
2018-12-10T15:29:09.956Z,62.84
2018-12-10T15:31:45.297Z,62.23
2018-12-10T15:34:32.545Z,62.73
2018-12-10T15:37:12.601Z,62.51
2018-12-10T15:39:45.928Z,63.07
2018-12-10T15:42:23.329Z,63.30
2018-12-10T15:49:41.164Z,63.02
2018-12-10T15:52:10.435Z,63.48
2018-12-10T15:54:48.871Z,63.96
2018-12-10T15:57:20.342Z,64.20
2018-12-10T16:00:10.594Z,64.93
2018-12-10T16:05:26.710Z,64.60
2018-12-10T16:08:10.184Z,64.96
2018-12-10T16:10:42.750Z,63.93
2018-12-10T16:13:20.260Z,64.47
2018-12-10T16:15:49.483Z,63.57
2018-12-10T16:18:19.787Z,63.32
2018-12-10T16:22:24.752Z,64.05
2018-12-10T16:24:54.363Z,63.65
2018-12-10T16:27:23.339Z,63.66
2018-12-10T16:29:52.103Z,63.82
2018-12-10T16:32:22.454Z,64.40
2018-12-10T16:34:59.477Z,64.56
2018-12-10T16:37:28.969Z,64.29
2018-12-10T16:39:58.289Z,63.87
2018-12-10T16:42:30.651Z,63.76
2018-12-10T16:45:03.812Z,63.85
2018-12-10T16:47:36.709Z,63.39
2018-12-10T16:50:07.528Z,63.62
2018-12-10T16:52:36.319Z,63.42
2018-12-10T16:55:05.422Z,63.30
2018-12-10T16:57:34.703Z,63.28
2018-12-10T17:00:23.529Z,63.30
2018-12-10T17:02:53.689Z,62.94
2018-12-10T17:05:35.047Z,62.29
2018-12-10T17:08:05.841Z,63.21
2018-12-10T17:10:35.679Z,63.11
2018-12-10T17:13:09.144Z,62.43
2018-12-10T17:15:38.092Z,62.19
2018-12-10T17:18:06.764Z,62.32
2018-12-10T17:20:46.647Z,61.40
2018-12-10T17:24:13.943Z,61.77
2018-12-10T17:26:44.695Z,61.71
2018-12-10T17:29:18.930Z,61.55
2018-12-10T17:31:52.300Z,60.69
2018-12-10T17:34:26.880Z,61.74
2018-12-10T17:36:55.971Z,61.19
2018-12-10T17:39:32.125Z,61.40
2018-12-10T17:42:04.133Z,61.14
2018-12-10T17:44:37.301Z,61.52
2018-12-10T17:47:08.830Z,61.97
2018-12-10T17:49:38.568Z,62.79
2018-12-10T17:52:17.150Z,62.39
2018-12-10T17:54:47.914Z,63.07
2018-12-10T17:57:25.877Z,62.99
2018-12-10T17:59:58.348Z,62.88
2018-12-10T18:02:27.771Z,63.78
2018-12-10T18:04:59.395Z,63.27
2018-12-10T18:07:30.740Z,64.43
2018-12-10T18:10:07.529Z,63.94
2018-12-10T18:12:42.580Z,64.18
2018-12-10T18:15:22.248Z,64.30
2018-12-10T18:19:56.207Z,63.95
2018-12-10T18:22:28.385Z,64.29
2018-12-10T18:24:58.732Z,64.97
2018-12-10T18:27:27.875Z,64.47
2018-12-10T18:29:58.717Z,64.66
2018-12-10T18:32:28.532Z,64.68
2018-12-10T18:35:03.525Z,64.46
2018-12-10T18:37:38.829Z,64.24
2018-12-10T18:40:21.410Z,63.81
2018-12-10T18:42:53.402Z,63.87
2018-12-10T18:45:24.076Z,64.12
2018-12-10T18:47:56.094Z,63.62
2018-12-10T18:50:27.578Z,64.48
2018-12-10T18:52:58.306Z,63.93
2018-12-10T18:55:28.931Z,63.99
2018-12-10T18:58:00.048Z,63.95
2018-12-10T19:00:44.314Z,63.94
2018-12-10T19:03:16.029Z,64.27
2018-12-10T19:05:47.795Z,64.19
2018-12-10T19:08:17.234Z,63.92
2018-12-10T19:10:56.211Z,64.41
2018-12-10T19:13:26.244Z,64.85
2018-12-10T19:18:45.626Z,63.81
2018-12-10T19:21:23.457Z,64.40
2018-12-10T19:23:52.492Z,63.49
2018-12-10T19:29:42.119Z,63.73
2018-12-10T19:32:17.976Z,64.16
2018-12-10T19:34:54.760Z,64.48
2018-12-10T19:37:31.634Z,64.42
2018-12-10T19:40:04.343Z,64.32
2018-12-10T19:42:43.920Z,64.39
2018-12-10T19:45:18.512Z,64.47
2018-12-10T19:47:51.820Z,64.14
2018-12-10T19:50:32.587Z,64.69
2018-12-10T19:55:57.406Z,64.57
2018-12-10T19:58:37.724Z,63.92
2018-12-10T20:01:15.549Z,63.44
2018-12-10T20:03:55.078Z,63.79
2018-12-10T20:06:33.762Z,63.12
2018-12-10T20:09:08.021Z,63.38
2018-12-10T20:14:50.652Z,63.16
2018-12-10T20:17:28.037Z,62.66
2018-12-10T20:19:57.739Z,62.75
2018-12-10T20:22:28.457Z,62.32
2018-12-10T20:24:58.781Z,62.49
2018-12-10T20:27:28.601Z,61.99
2018-12-10T20:30:03.580Z,62.58
2018-12-10T20:32:33.328Z,62.98
2018-12-10T20:35:03.379Z,63.05
2018-12-10T20:37:36.313Z,62.77
2018-12-10T20:40:05.217Z,63.56
2018-12-10T20:42:34.867Z,63.13
2018-12-10T20:45:08.602Z,63.24
2018-12-10T20:47:42.671Z,64.28
2018-12-10T20:50:15.556Z,64.51
2018-12-10T20:52:44.175Z,64.69
2018-12-10T20:55:14.572Z,64.52
2018-12-10T20:57:47.400Z,64.99
2018-12-10T21:00:24.691Z,64.51
2018-12-10T21:02:56.215Z,65.26
2018-12-10T21:05:29.275Z,64.76
2018-12-10T21:08:06.546Z,65.42
2018-12-10T21:10:42.129Z,64.95
2018-12-10T21:13:12.708Z,64.97
2018-12-10T21:15:46.616Z,65.50
2018-12-10T21:18:21.810Z,65.15
2018-12-10T21:20:51.716Z,65.39
2018-12-10T21:23:20.602Z,64.79
2018-12-10T21:25:53.466Z,65.21
2018-12-10T21:28:26.147Z,64.19
2018-12-10T21:30:56.250Z,64.69
2018-12-10T21:33:26.249Z,64.81
2018-12-10T21:35:56.602Z,64.65
2018-12-10T21:38:25.416Z,64.50
2018-12-10T21:40:55.657Z,64.92
2018-12-10T21:43:33.187Z,64.60
2018-12-10T21:46:09.957Z,64.41
2018-12-10T21:48:41.743Z,64.06
2018-12-10T21:51:16.938Z,64.27
2018-12-10T21:53:45.974Z,64.13
2018-12-10T21:56:28.458Z,64.74
2018-12-10T21:58:59.109Z,64.13
2018-12-10T22:01:34.176Z,64.22
2018-12-10T22:04:05.767Z,65.34
2018-12-10T22:06:35.070Z,65.09
2018-12-10T22:09:05.764Z,65.20
2018-12-10T22:11:37.178Z,64.68
2018-12-10T22:14:10.206Z,65.43
2018-12-10T22:16:41.510Z,65.17
2018-12-10T22:19:19.799Z,65.42
2018-12-10T22:22:04.797Z,65.27
2018-12-10T22:27:15.407Z,64.88
2018-12-10T22:29:51.484Z,65.25
2018-12-10T22:32:32.560Z,64.89
2018-12-10T22:35:15.503Z,65.05
2018-12-10T22:37:56.355Z,64.79
2018-12-10T22:40:26.578Z,65.50
2018-12-10T22:42:56.955Z,65.07
2018-12-10T22:45:28.855Z,65.03
2018-12-10T22:48:02.856Z,64.98
2018-12-10T22:50:32.162Z,65.05
2018-12-10T22:53:00.834Z,65.00
2018-12-10T22:55:32.010Z,65.10
2018-12-10T22:58:01.473Z,64.97
2018-12-10T23:00:35.520Z,65.02
2018-12-10T23:03:05.695Z,65.35
2018-12-10T23:05:37.081Z,64.94
2018-12-10T23:08:08.608Z,65.55
2018-12-10T23:10:39.229Z,64.92
2018-12-10T23:13:17.022Z,64.87
2018-12-10T23:15:50.569Z,64.78
2018-12-10T23:18:20.047Z,64.33
2018-12-10T23:20:49.224Z,64.31
2018-12-10T23:23:22.001Z,65.08
2018-12-10T23:25:51.963Z,64.36
2018-12-10T23:28:21.226Z,64.91
2018-12-10T23:30:51.774Z,64.76
2018-12-10T23:35:58.311Z,64.28
2018-12-10T23:38:32.403Z,64.34
2018-12-10T23:41:02.318Z,64.69
2018-12-10T23:43:31.533Z,65.15
2018-12-10T23:46:05.936Z,64.90
2018-12-10T23:48:35.706Z,64.82
2018-12-10T23:51:06.372Z,64.68
2018-12-10T23:56:19.378Z,64.65
2018-12-10T23:58:49.750Z,64.61
